createdAt,value
2018-09-12T00:00:03.595Z,19.96
2018-09-12T00:05:03.600Z,20.01
2018-09-12T00:10:03.600Z,20.03
2018-09-12T00:15:03.597Z,20.09
2018-09-12T00:20:03.624Z,20.21
2018-09-12T00:25:03.602Z,20.31
2018-09-12T00:30:03.608Z,20.42
2018-09-12T00:35:03.621Z,20.44
2018-09-12T00:40:03.612Z,20.44
2018-09-12T00:45:03.615Z,20.44
2018-09-12T00:50:03.630Z,20.36
2018-09-12T00:55:03.617Z,20.28
2018-09-12T01:00:03.622Z,20.16
2018-09-12T01:05:03.631Z,20.15
2018-09-12T01:10:03.626Z,20.11
2018-09-12T01:15:03.629Z,20.07
2018-09-12T01:20:03.644Z,20.03
2018-09-12T01:25:03.637Z,20.06
2018-09-12T01:30:03.640Z,20.02
2018-09-12T01:35:03.700Z,19.91
2018-09-12T01:40:03.666Z,19.85
2018-09-12T01:45:03.652Z,19.76
2018-09-12T01:50:03.675Z,19.81
2018-09-12T01:55:03.649Z,19.88
2018-09-12T02:00:03.662Z,19.89
2018-09-12T02:05:03.664Z,19.84
2018-09-12T02:10:03.678Z,19.8
2018-09-12T02:15:03.665Z,19.71
2018-09-12T02:20:03.674Z,19.59
2018-09-12T02:25:03.686Z,19.45
2018-09-12T02:30:03.679Z,19.41
2018-09-12T02:35:03.697Z,19.47
2018-09-12T02:40:03.683Z,19.57
2018-09-12T02:45:03.684Z,19.59
2018-09-12T02:50:03.695Z,19.58
2018-09-12T02:55:03.690Z,19.58
2018-09-12T03:00:03.704Z,19.59
2018-09-12T03:05:03.697Z,19.56
2018-09-12T03:10:03.715Z,19.53
2018-09-12T03:15:03.695Z,19.5
2018-09-12T03:20:03.719Z,19.44
2018-09-12T03:25:03.718Z,19.39
2018-09-12T03:30:03.706Z,19.29
2018-09-12T03:35:03.724Z,19.22
2018-09-12T03:40:03.708Z,19.11
2018-09-12T03:45:03.712Z,18.99
2018-09-12T03:50:03.733Z,18.83
2018-09-12T03:55:03.724Z,18.64
2018-09-12T04:00:03.722Z,18.42
2018-09-12T04:05:03.727Z,18.23
2018-09-12T04:10:03.749Z,18.11
2018-09-12T04:15:03.756Z,18.06
2018-09-12T04:20:03.738Z,18.08
2018-09-12T04:25:03.741Z,18.14
2018-09-12T04:30:03.741Z,18.19
2018-09-12T04:35:03.803Z,18.22
2018-09-12T04:40:03.797Z,18.32
2018-09-12T04:45:03.751Z,18.44
2018-09-12T04:50:03.769Z,18.49
2018-09-12T04:55:03.752Z,18.46
2018-09-12T05:00:03.753Z,18.5
2018-09-12T05:05:03.806Z,18.63
2018-09-12T05:10:03.830Z,18.7
2018-09-12T05:15:03.782Z,18.81
2018-09-12T05:20:03.769Z,18.87
2018-09-12T05:25:03.765Z,18.96
2018-09-12T05:30:03.771Z,19.07
2018-09-12T05:35:03.776Z,19.14
2018-09-12T05:40:03.774Z,19.12
2018-09-12T05:45:03.781Z,19.13
2018-09-12T05:50:03.802Z,19.13
2018-09-12T05:55:03.787Z,19.1
2018-09-12T06:00:03.781Z,19.08
2018-09-12T06:05:03.797Z,19.07
2018-09-12T06:10:03.788Z,19.15
2018-09-12T06:15:03.789Z,19.3
2018-09-12T06:20:03.799Z,19.47
2018-09-12T06:25:03.808Z,19.65
2018-09-12T06:30:03.801Z,19.75
2018-09-12T06:35:03.805Z,19.76
2018-09-12T06:40:03.818Z,19.89
2018-09-12T06:45:03.809Z,20.11
2018-09-12T06:50:03.809Z,20.33
2018-09-12T06:55:03.835Z,20.55
2018-09-12T07:00:03.819Z,20.48
2018-09-12T07:05:03.823Z,20.5
2018-09-12T07:10:03.828Z,20.5
2018-09-12T07:15:03.824Z,20.66
2018-09-12T07:20:03.828Z,20.86
2018-09-12T07:25:03.847Z,20.94
2018-09-12T07:30:03.829Z,21.1
2018-09-12T07:35:03.840Z,21.18
2018-09-12T07:40:03.846Z,21.39
2018-09-12T07:45:03.838Z,21.7
2018-09-12T07:50:03.842Z,21.8
2018-09-12T07:55:03.903Z,22.08
2018-09-12T08:00:03.915Z,22.47
2018-09-12T08:05:03.899Z,22.91
2018-09-12T08:10:04.195Z,22.9
2018-09-12T08:15:03.840Z,23.39
2018-09-12T08:20:03.861Z,23.8
2018-09-12T08:25:03.863Z,24.27
2018-09-12T08:30:03.876Z,24.58
2018-09-12T08:35:03.869Z,24.71
2018-09-12T08:40:03.869Z,24.59
2018-09-12T08:45:03.892Z,24.65
2018-09-12T08:50:03.881Z,24.2
2018-09-12T08:55:03.887Z,23.74
2018-09-12T09:00:03.890Z,23.79
2018-09-12T09:05:03.884Z,24.51
2018-09-12T09:10:03.886Z,25.03
2018-09-12T09:15:03.902Z,25.17
2018-09-12T09:20:03.895Z,24.76
2018-09-12T09:25:03.895Z,25.22
2018-09-12T09:30:03.903Z,25.71
2018-09-12T09:35:03.999Z,25.42
2018-09-12T09:40:03.899Z,24.92
2018-09-12T09:45:03.931Z,24.04
2018-09-12T09:50:03.905Z,23.38
2018-09-12T09:55:03.945Z,22.92
2018-09-12T10:00:03.921Z,22.75
2018-09-12T10:05:03.913Z,22.67
2018-09-12T10:10:03.921Z,23.15
2018-09-12T10:15:03.942Z,23.41
2018-09-12T10:20:03.923Z,23.84
2018-09-12T10:25:03.928Z,24.57
2018-09-12T10:30:03.946Z,25.52
2018-09-12T10:35:03.929Z,24.75
2018-09-12T10:40:03.933Z,23.43
2018-09-12T10:45:03.951Z,22.76
2018-09-12T10:50:03.940Z,22.49
2018-09-12T10:55:03.941Z,22.55
2018-09-12T11:00:04.036Z,22.41
2018-09-12T11:05:03.945Z,22.91
2018-09-12T11:10:03.951Z,22.84
2018-09-12T11:15:03.971Z,22.18
2018-09-12T11:20:03.960Z,21.64
2018-09-12T11:25:03.969Z,21.17
2018-09-12T11:30:03.972Z,20.63
2018-09-12T11:35:03.959Z,20.36
2018-09-12T11:40:03.979Z,20.26
2018-09-12T11:45:03.981Z,20.33
2018-09-12T11:50:03.969Z,21.09
2018-09-12T11:55:03.971Z,21.46
2018-09-12T12:00:03.994Z,22.19
2018-09-12T12:05:03.976Z,22.79
2018-09-12T12:10:03.987Z,22.39
2018-09-12T12:15:03.999Z,22.04
2018-09-12T12:20:03.991Z,22.03
2018-09-12T12:25:03.989Z,21.4
2018-09-12T12:30:03.997Z,21.07
2018-09-12T12:35:03.991Z,21.1
2018-09-12T12:40:04.003Z,20.8
2018-09-12T12:45:04.010Z,20.75
2018-09-12T12:50:04.000Z,20.81
2018-09-12T12:55:04.004Z,20.91
2018-09-12T13:00:04.047Z,21.02
2018-09-12T13:05:04.010Z,21.42
2018-09-12T13:10:04.015Z,20.89
2018-09-12T13:15:04.024Z,20.49
2018-09-12T13:20:04.026Z,20.05
2018-09-12T13:25:04.028Z,19.91
2018-09-12T13:30:04.031Z,19.82
2018-09-12T13:35:04.038Z,19.13
2018-09-12T13:40:04.043Z,18.36
2018-09-12T13:45:04.039Z,18.1
2018-09-12T13:50:04.047Z,18.34
2018-09-12T13:55:04.047Z,18.25
2018-09-12T14:00:04.059Z,17.82
2018-09-12T14:05:04.038Z,17.65
2018-09-12T14:10:04.059Z,17.65
2018-09-12T14:15:04.070Z,17.91
2018-09-12T14:20:04.054Z,17.82
2018-09-12T14:25:04.146Z,17.63
2018-09-12T14:30:04.065Z,17.6
2018-09-12T14:35:04.059Z,17.76
2018-09-12T14:40:04.062Z,17.9
2018-09-12T14:45:04.163Z,18.36
2018-09-12T14:50:04.067Z,18.18
2018-09-12T14:55:04.094Z,17.91
2018-09-12T15:00:04.088Z,17.51
2018-09-12T15:05:04.077Z,17.59
2018-09-12T15:10:04.080Z,17.41
2018-09-12T15:15:04.087Z,17.32
2018-09-12T15:20:04.094Z,17.2
2018-09-12T15:25:04.096Z,16.98
2018-09-12T15:30:04.092Z,16.77
2018-09-12T15:35:04.093Z,16.76
2018-09-12T15:40:04.101Z,16.73
2018-09-12T15:45:04.103Z,16.67
2018-09-12T15:50:04.132Z,16.75
2018-09-12T15:55:04.112Z,16.8
2018-09-12T16:00:04.138Z,17.1
2018-09-12T16:05:04.108Z,17.09
2018-09-12T16:10:04.109Z,16.87
2018-09-12T16:15:04.143Z,16.66
2018-09-12T16:20:04.126Z,16.61
2018-09-12T16:25:04.130Z,16.54
2018-09-12T16:30:04.135Z,16.55
2018-09-12T16:35:04.124Z,16.4
2018-09-12T16:40:04.219Z,16.37
2018-09-12T16:45:04.144Z,16.2
2018-09-12T16:50:04.128Z,16.1
2018-09-12T16:55:04.131Z,15.97
2018-09-12T17:00:04.144Z,15.95
2018-09-12T17:05:04.138Z,15.83
2018-09-12T17:10:04.144Z,15.63
2018-09-12T17:15:04.162Z,15.54
2018-09-12T17:20:04.172Z,15.3
2018-09-12T17:25:04.151Z,14.99
2018-09-12T17:30:04.252Z,14.11
2018-09-12T17:35:04.156Z,13.35
2018-09-12T17:40:04.160Z,13.32
2018-09-12T17:45:04.172Z,13.34
2018-09-12T17:50:04.166Z,13.2
2018-09-12T17:55:04.170Z,13.15
2018-09-12T18:00:04.192Z,13.17
2018-09-12T18:05:04.180Z,13.09
2018-09-12T18:10:04.176Z,13.01
2018-09-12T18:15:04.178Z,12.93
2018-09-12T18:20:04.194Z,12.93
2018-09-12T18:25:04.183Z,12.8
2018-09-12T18:30:04.184Z,12.79
2018-09-12T18:35:04.187Z,12.82
2018-09-12T18:40:04.198Z,12.81
2018-09-12T18:45:04.192Z,12.85
2018-09-12T18:50:04.198Z,12.82
2018-09-12T18:55:04.197Z,12.86
2018-09-12T19:00:04.212Z,12.86
2018-09-12T19:05:04.206Z,12.85
2018-09-12T19:10:04.203Z,12.82
2018-09-12T19:15:04.222Z,12.93
2018-09-12T19:20:04.215Z,13.15
2018-09-12T19:25:04.214Z,13.31
2018-09-12T19:30:04.226Z,13.6
2018-09-12T19:35:04.220Z,13.46
2018-09-12T19:40:04.222Z,13.47
2018-09-12T19:45:04.240Z,13.49
2018-09-12T19:50:04.233Z,13.5
2018-09-12T19:55:04.226Z,13.54
2018-09-12T20:00:04.245Z,13.59
2018-09-12T20:05:04.239Z,13.6
2018-09-12T20:10:04.235Z,13.62
2018-09-12T20:15:04.249Z,13.63
2018-09-12T20:20:04.242Z,13.68
2018-09-12T20:25:04.246Z,13.69
2018-09-12T20:30:04.337Z,13.7
2018-09-12T20:35:04.248Z,13.66
2018-09-12T20:40:04.255Z,13.67
2018-09-12T20:45:04.258Z,13.69
2018-09-12T20:50:04.262Z,13.73
2018-09-12T20:55:04.261Z,13.73
2018-09-12T21:00:04.272Z,13.76
2018-09-12T21:05:04.267Z,13.76
2018-09-12T21:10:04.267Z,13.77
2018-09-12T21:15:04.280Z,13.75
2018-09-12T21:20:04.283Z,13.76
2018-09-12T21:25:04.274Z,13.73
2018-09-12T21:30:04.305Z,13.69
2018-09-12T21:35:04.277Z,13.68
2018-09-12T21:40:04.283Z,13.63
2018-09-12T21:45:04.302Z,13.59
2018-09-12T21:50:04.286Z,13.49
2018-09-12T21:55:04.290Z,13.45
2018-09-12T22:00:04.301Z,13.38
2018-09-12T22:05:04.305Z,13.37
2018-09-12T22:10:04.300Z,13.34
2018-09-12T22:15:04.308Z,13.3
2018-09-12T22:20:04.308Z,13.24
2018-09-12T22:25:04.309Z,13.16
2018-09-12T22:30:04.319Z,13.11
2018-09-12T22:35:04.315Z,13.1
2018-09-12T22:40:04.316Z,13.14
2018-09-12T22:45:04.334Z,13.11
2018-09-12T22:50:04.316Z,13.11
2018-09-12T22:55:04.323Z,13.04
2018-09-12T23:00:04.330Z,12.95
2018-09-12T23:05:04.328Z,12.87
2018-09-12T23:10:04.335Z,12.41
2018-09-12T23:15:04.354Z,11.85
2018-09-12T23:20:04.336Z,11.48
2018-09-12T23:25:04.342Z,11.37
2018-09-12T23:30:04.351Z,11.34
2018-09-12T23:35:04.346Z,11.32
2018-09-12T23:40:04.348Z,11.31
2018-09-12T23:45:04.359Z,11.29
2018-09-12T23:50:04.351Z,11.24
2018-09-12T23:55:04.370Z,11.24
